Aérodrome :







RETROUVEZ-NOUS SUR...

 
LOGIN :

S'inscrire | Disclaimer

   EN    FR    IT 

 









Légende :    VFR   VFR Marginal   IFR   IFR Intensif   IFR Très Intensif
Visi : 
Plafond : 
>= 8 km
>= 3000ft
5 à 8 km
1000 à 3000 ft
1500m à 5 km
500 à 1000 ft
800 à 1500m
200 à 500 ft
< 800m
< 200 ft
Symboles :   Orages  Brouillard  Fortes neiges  Fortes précipitations  Vent > 20 kt






- Altitude de l'aérodrome : 285 ft
- Code IATA : ALB


KALB - Albany International

DERNIER METAR :
  • 242051Z 18008KT 10SM SCT200 BKN250 17/M04 A2990 RMK AO2 SLP126 T01671044 58018

METARs EXPIRÉS :
  • 241951Z 17007KT 10SM SCT200 BKN250 16/M06 A2992 RMK AO2 SLP132 T01561056
  • 241851Z 13005KT 10SM SCT230 15/M07 A2993 RMK AO2 SLP138 T01501067

TAF KALB
Valide du 24 à 18h jusqu'au 25 à 18h UTC


241720Z 2418/2518 17008KT P6SM SCT250
FM242300 VRB03KT P6SM BKN150
FM251500 34003KT P6SM VCSH SCT025 OVC035



MET'MAP, la Météo Aéronautique d'un coup d'oeil ! - Copyright ORBIFLY Décembre 2007 - Disclaimer

ORBIFLY MET'MAP TEAM :

Programmation & Développement : Alexandra Zaïnal
Sur une idée originale de : Baudouin d'Aumeries
Assistance à la programmation : Marc-Olivier Méhu
Soutien technique & logistique : Manuel Goepfert

Contact : metmap@orbifly.com




SOURCES & CREDITS :

   NOAA